Terminal Aerodrome Forecast
Issued by NWS Charleston, WV

Current Version | Previous Version | Graphics & Text | Print | Product List | Glossary On
Versions: 1 2 3 4 5 6 7 8 9 10 11 12 13 14 15 16 17 18 19 20 21 22
587
FTUS41 KRLX 262321
TAFBKW
TAF
KBKW 262321Z 2700/2724 21004KT P6SM SCT060
     FM271000 00000KT 5SM BR SCT060
     FM271400 VRB02KT P6SM SCT040
     FM271900 VRB03KT P6SM SHRA VCTS BKN050CB=

USA.gov is the U.S. government's official web portal to all federal, state and local government web resources and services.